Weather at El Palomar Airport

Public forecast

Using degrees Celsius for public forecast. Weather courtesy of forecast.io.

Current aviation weather report (METAR) for El Palomar Airport

Retrieved 2020/11/28 16:25 UTC (0 seconds ago):

SADP 281625Z 07017G30KT 9999 -DZ SCT030 OVC110 19/17 Q1008 RETSRA

Aviation forecast (TAF) for El Palomar Airport

Retrieved 2020/11/28 12:30 UTC (4 hours ago):

TAF SADP 281100Z 2812/2912 04010KT CAVOK TX30/2818Z TN18/2909Z BECMG 2815/2818 VRB05KT 8000 -SHRA SCT030 FEW050TCU TEMPO 2819/2822 05010KT 5000 TSRA BKN040 FEW050CB BECMG 2900/2903 23005KT 6000 BKN020 PROB30 TEMPO 2907/2911 2000 MIFG BKN008